Time;durP1;ratioP1;P1;durP2;ratioP2;P2;SDS_P1;SDS_P2;PMS_P1;PMS_P2;Temp;Humidity;BMP_temperature;BMP_pressure;BME280_temperature;BME280_humidity;BME280_pressure;Samples;Min_cycle;Max_cycle;Signal;HPM_P1;HPM_P2
2022/05/20 00:02:23;;;;;;;5.82;1.50;;;;;;;17.25;77.12;100805.97;5035369;28;20040;-74
2022/05/20 00:04:48;;;;;;;6.28;1.40;;;;;;;17.26;77.27;100793.56;5034228;28;20040;-74
2022/05/20 00:07:14;;;;;;;3.85;1.20;;;;;;;17.20;77.30;100799.34;5036231;28;20037;-75
2022/05/20 00:09:39;;;;;;;5.53;1.45;;;;;;;17.19;77.62;100808.13;5019693;28;20044;-74
2022/05/20 00:12:06;;;;;;;6.40;1.50;;;;;;;17.19;77.00;100810.91;4999824;28;20057;-75
2022/05/20 00:14:32;;;;;;;5.65;1.50;;;;;;;17.13;77.33;100801.84;5038444;28;20026;-75
2022/05/20 00:17:01;;;;;;;7.72;2.13;;;;;;;17.13;77.60;100810.28;5025685;28;20029;-74
2022/05/20 00:19:27;;;;;;;7.32;1.58;;;;;;;17.10;77.51;100810.91;5036651;28;20041;-74
2022/05/20 00:21:52;;;;;;;6.47;1.40;;;;;;;17.06;77.90;100812.72;5035783;28;20509;-75
2022/05/20 00:24:17;;;;;;;5.80;1.42;;;;;;;17.06;77.69;100798.69;5034463;28;20034;-75
2022/05/20 00:26:43;;;;;;;6.47;1.58;;;;;;;17.04;77.65;100801.00;5015969;28;20029;-75
2022/05/20 00:29:08;;;;;;;5.10;1.40;;;;;;;17.05;77.86;100796.22;5012662;28;20100;-75
2022/05/20 00:31:34;;;;;;;7.75;1.65;;;;;;;17.04;77.65;100788.97;5023891;28;21039;-74
2022/05/20 00:34:00;;;;;;;6.50;1.50;;;;;;;17.04;77.79;100792.59;5034710;28;20085;-74
2022/05/20 00:36:25;;;;;;;7.28;1.70;;;;;;;17.01;78.05;100789.63;5036450;28;20033;-74
2022/05/20 00:38:51;;;;;;;5.22;1.80;;;;;;;17.00;77.97;100780.41;5036828;28;20104;-74
2022/05/20 00:41:16;;;;;;;11.52;2.00;;;;;;;17.02;78.69;100777.25;5036768;28;20038;-75
2022/05/20 00:43:44;;;;;;;3.28;1.40;;;;;;;17.00;78.49;100766.38;5035622;28;20075;-74
2022/05/20 00:46:11;;;;;;;6.82;1.70;;;;;;;17.01;78.64;100755.97;5035513;28;20037;-74
2022/05/20 00:48:37;;;;;;;9.20;1.48;;;;;;;17.01;78.96;100764.38;5035194;28;20029;-74
2022/05/20 00:51:19;;;;;;;7.03;1.88;;;;;;;16.98;78.98;100744.25;5021581;28;20041;-74
2022/05/20 00:54:18;;;;;;;7.03;1.83;;;;;;;17.00;78.31;100741.13;5035157;28;20022;-74
2022/05/20 00:56:48;;;;;;;8.32;1.90;;;;;;;16.98;78.47;100746.22;5010941;28;20029;-75
2022/05/20 00:59:17;;;;;;;6.22;1.77;;;;;;;16.98;78.38;100738.63;5036054;28;20053;-74
2022/05/20 01:01:44;;;;;;;7.28;2.10;;;;;;;16.97;78.56;100736.16;5036613;28;20033;-74
2022/05/20 01:04:09;;;;;;;6.90;1.80;;;;;;;16.95;78.19;100735.66;5021708;28;20045;-74
2022/05/20 01:06:35;;;;;;;8.25;1.42;;;;;;;16.94;77.94;100731.22;5034813;28;20034;-74
2022/05/20 01:09:00;;;;;;;6.93;1.88;;;;;;;16.94;78.51;100722.81;5036449;28;20038;-74
2022/05/20 01:11:26;;;;;;;6.05;1.55;;;;;;;16.90;78.02;100707.78;5036054;28;20531;-74
2022/05/20 01:13:51;;;;;;;6.78;1.52;;;;;;;16.90;78.36;100716.19;5034754;28;20029;-74
2022/05/20 01:16:17;;;;;;;6.13;1.58;;;;;;;16.87;78.39;100705.66;5022978;28;20482;-75
2022/05/20 01:18:45;;;;;;;7.40;1.60;;;;;;;16.86;78.46;100702.03;5035230;28;20030;-74
2022/05/20 01:21:10;;;;;;;4.78;1.30;;;;;;;16.85;78.25;100693.94;5034537;28;20474;-74
2022/05/20 01:23:36;;;;;;;6.00;1.77;;;;;;;16.81;78.52;100685.34;5033831;28;20058;-74
2022/05/20 01:26:02;;;;;;;6.28;1.58;;;;;;;16.80;78.47;100682.88;5034816;28;20031;-74
2022/05/20 01:28:29;;;;;;;8.52;1.73;;;;;;;16.76;78.41;100677.09;5036247;28;20025;-74
2022/05/20 01:31:04;;;;;;;7.70;2.05;;;;;;;16.77;78.60;100658.28;5036149;28;20030;-75
2022/05/20 01:33:38;;;;;;;6.38;1.60;;;;;;;16.74;78.51;100663.41;5036201;28;20385;-74
2022/05/20 01:36:07;;;;;;;6.68;1.52;;;;;;;16.72;78.85;100664.88;5021736;28;20037;-74
2022/05/20 01:38:32;;;;;;;9.15;1.60;;;;;;;16.71;79.17;100663.22;5036033;28;20509;-74
2022/05/20 01:41:07;;;;;;;6.70;1.48;;;;;;;16.67;79.08;100657.47;5035989;28;20029;-74
2022/05/20 01:43:54;;;;;;;4.70;1.60;;;;;;;16.66;79.68;100657.78;5035955;28;20534;-74
2022/05/20 01:46:35;;;;;;;6.80;1.50;;;;;;;16.62;79.04;100654.81;5035999;28;20034;-74
2022/05/20 01:49:21;;;;;;;9.00;2.03;;;;;;;16.57;79.29;100640.97;5034050;28;20521;-74
2022/05/20 01:52:12;;;;;;;7.47;1.63;;;;;;;16.56;79.49;100638.50;5034453;28;20026;-74
2022/05/20 01:54:46;;;;;;;7.93;1.95;;;;;;;16.52;79.55;100638.38;5034588;28;20111;-74
2022/05/20 01:57:24;;;;;;;5.95;1.65;;;;;;;16.48;79.53;100640.16;5035920;28;20104;-75
2022/05/20 01:59:52;;;;;;;9.45;1.90;;;;;;;16.45;79.81;100635.22;5035169;28;20517;-75
2022/05/20 02:02:25;;;;;;;7.03;1.58;;;;;;;16.43;79.61;100634.72;5034797;28;20034;-74
2022/05/20 02:04:55;;;;;;;6.85;1.80;;;;;;;16.39;79.96;100634.56;5034445;28;20486;-74
2022/05/20 02:07:27;;;;;;;6.18;1.73;;;;;;;16.37;79.91;100636.03;5034336;28;20405;-74
2022/05/20 02:10:01;;;;;;;4.50;1.50;;;;;;;16.33;79.79;100635.06;5035829;28;20034;-74
2022/05/20 02:12:28;;;;;;;7.38;1.98;;;;;;;16.29;80.64;100641.31;5031470;28;20722;-74
2022/05/20 02:15:10;;;;;;;7.70;1.85;;;;;;;16.26;80.94;100647.56;5032571;28;20033;-75
2022/05/20 02:17:37;;;;;;;7.75;1.95;;;;;;;16.27;81.16;100654.03;5030376;28;20030;-74
2022/05/20 02:20:27;;;;;;;6.78;1.73;;;;;;;16.22;80.69;100657.00;5002176;28;20022;-74
2022/05/20 02:22:59;;;;;;;7.15;1.80;;;;;;;16.19;80.66;100668.84;5019241;28;20033;-75
2022/05/20 02:25:28;;;;;;;4.25;1.65;;;;;;;16.17;80.90;100657.97;5021753;28;20032;-74
2022/05/20 02:28:00;;;;;;;8.02;1.95;;;;;;;16.16;80.72;100659.13;5021834;28;20091;-74
2022/05/20 02:30:28;;;;;;;5.68;1.48;;;;;;;16.18;80.60;100658.78;5037926;28;20104;-74
2022/05/20 02:33:14;;;;;;;5.30;1.58;;;;;;;16.14;80.21;100644.63;5005514;28;20034;-74
2022/05/20 02:35:40;;;;;;;6.60;1.88;;;;;;;16.16;80.42;100649.88;5039116;28;20386;-74
2022/05/20 02:38:09;;;;;;;5.90;2.00;;;;;;;16.17;80.50;100652.34;5038902;28;20025;-74
2022/05/20 02:40:35;;;;;;;6.22;1.92;;;;;;;16.18;80.73;100655.97;5018328;28;20670;-74
2022/05/20 02:43:01;;;;;;;6.65;1.92;;;;;;;16.18;80.69;100650.38;5028939;28;20037;-74
2022/05/20 02:45:26;;;;;;;6.30;1.92;;;;;;;16.18;80.46;100656.78;5038863;28;20036;-74
2022/05/20 02:47:52;;;;;;;5.80;1.98;;;;;;;16.19;80.76;100657.66;5038999;28;20026;-74
2022/05/20 02:50:17;;;;;;;4.88;2.00;;;;;;;16.19;80.93;100658.47;5036383;28;20081;-74
2022/05/20 02:52:43;;;;;;;3.67;1.48;;;;;;;16.19;81.09;100658.47;5033170;28;20044;-74
2022/05/20 02:55:09;;;;;;;5.88;1.80;;;;;;;16.19;81.20;100654.84;5038623;28;20067;-74
2022/05/20 02:57:35;;;;;;;7.45;1.77;;;;;;;16.19;81.27;100664.06;5039010;28;20033;-75
2022/05/20 03:05:28;;;;;;;5.30;1.58;;;;;;;16.21;81.20;100667.34;5037506;28;20040;-75
2022/05/20 03:07:54;;;;;;;5.03;1.70;;;;;;;16.21;81.55;100660.91;5037975;28;20029;-75
2022/05/20 03:10:19;;;;;;;6.30;2.00;;;;;;;16.20;81.67;100664.88;5017630;28;20045;-76
2022/05/20 03:12:45;;;;;;;4.45;1.63;;;;;;;16.20;81.65;100670.50;5007742;28;20136;-75
2022/05/20 03:15:11;;;;;;;5.50;1.92;;;;;;;16.23;81.96;100667.03;5046006;28;20025;-74
2022/05/20 03:17:37;;;;;;;5.60;2.05;;;;;;;16.24;82.23;100663.06;5033234;28;20037;-74
2022/05/20 03:20:04;;;;;;;6.25;1.88;;;;;;;16.22;81.97;100671.81;5038382;28;20079;-77
2022/05/20 03:22:29;;;;;;;6.35;1.90;;;;;;;16.24;81.87;100665.88;5033846;28;20038;-75
2022/05/20 03:24:55;;;;;;;5.93;1.80;;;;;;;16.24;81.75;100672.31;5020663;28;20046;-74
2022/05/20 03:27:20;;;;;;;5.72;1.90;;;;;;;16.25;82.29;100667.53;5036984;28;20548;-75
2022/05/20 03:29:46;;;;;;;7.65;2.05;;;;;;;16.27;82.61;100670.84;5037365;28;20026;-74
2022/05/20 03:32:12;;;;;;;5.68;1.75;;;;;;;16.27;82.30;100654.03;5037028;28;20068;-75
2022/05/20 03:34:38;;;;;;;7.72;2.13;;;;;;;16.29;83.25;100646.09;5036799;28;20386;-75
2022/05/20 03:37:04;;;;;;;10.43;1.92;;;;;;;16.30;83.79;100628.16;5037789;28;20021;-74
2022/05/20 03:39:29;;;;;;;6.53;1.75;;;;;;;16.28;84.34;100605.22;5036994;28;20040;-75
2022/05/20 03:41:56;;;;;;;6.55;1.90;;;;;;;16.28;83.70;100605.22;5037853;28;20056;-75
2022/05/20 03:44:21;;;;;;;3.58;1.90;;;;;;;16.29;82.98;100606.84;5037833;28;20036;-75
2022/05/20 03:46:52;;;;;;;6.18;2.00;;;;;;;16.29;83.02;100618.06;5036649;28;20113;-75
2022/05/20 03:49:17;;;;;;;5.88;1.70;;;;;;;16.29;82.59;100609.66;5034998;28;20021;-75
2022/05/20 03:51:45;;;;;;;6.10;1.65;;;;;;;16.29;82.16;100613.28;5036325;28;20044;-74
2022/05/20 03:54:11;;;;;;;7.03;1.80;;;;;;;16.29;82.39;100615.28;5037735;28;20173;-75
2022/05/20 03:56:38;;;;;;;5.03;1.83;;;;;;;16.29;82.51;100595.66;5037423;28;20440;-74
2022/05/20 03:59:03;;;;;;;4.25;1.80;;;;;;;16.27;82.43;100590.41;5036552;28;20037;-74
2022/05/20 04:04:13;;;;;;;4.60;1.52;;;;;;;16.28;82.53;100575.22;5021967;28;20573;-74
2022/05/20 04:06:38;;;;;;;6.10;2.00;;;;;;;16.26;82.66;100571.09;5037069;28;20029;-75
2022/05/20 04:09:05;;;;;;;6.22;2.03;;;;;;;16.24;83.99;100560.22;5037543;28;20026;-75
2022/05/20 04:11:32;;;;;;;5.85;2.40;;;;;;;16.16;85.45;100552.66;5019463;28;20041;-74
2022/05/20 04:13:57;;;;;;;5.53;2.65;;;;;;;16.06;87.28;100525.78;5036140;28;20442;-74
2022/05/20 04:16:23;;;;;;;12.43;3.10;;;;;;;15.94;90.29;100505.22;5024261;28;20029;-75
2022/05/20 04:18:48;;;;;;;8.05;2.65;;;;;;;15.96;87.77;100508.50;5037531;28;20025;-74
2022/05/20 04:21:14;;;;;;;5.28;2.08;;;;;;;15.97;86.96;100519.38;5035714;28;20088;-74
2022/05/20 04:23:41;;;;;;;9.30;2.30;;;;;;;15.97;86.14;100510.16;5033411;28;20033;-74
2022/05/20 04:26:06;;;;;;;6.88;2.20;;;;;;;16.00;86.04;100496.31;5036008;28;20449;-75
2022/05/20 04:28:32;;;;;;;8.18;2.10;;;;;;;15.99;85.89;100513.44;5037183;28;20033;-74
2022/05/20 04:31:00;;;;;;;6.32;2.03;;;;;;;15.99;85.66;100530.22;5035775;28;20041;-74
2022/05/20 04:33:25;;;;;;;6.35;1.92;;;;;;;16.00;85.29;100531.91;5037016;28;20037;-75
2022/05/20 04:35:51;;;;;;;3.65;1.92;;;;;;;16.01;84.82;100533.53;5034647;28;20072;-74
2022/05/20 04:38:17;;;;;;;4.90;1.70;;;;;;;16.03;84.84;100531.22;5036965;28;20034;-74
2022/05/20 04:40:42;;;;;;;6.55;1.80;;;;;;;16.03;84.98;100536.84;5035588;28;20033;-74
2022/05/20 04:48:36;;;;;;;7.85;2.63;;;;;;;16.09;85.67;100577.53;5035521;28;20451;-75
2022/05/20 04:51:02;;;;;;;6.43;2.17;;;;;;;16.10;85.80;100565.16;5033172;28;20037;-74
2022/05/20 04:56:11;;;;;;;6.75;2.35;;;;;;;16.11;85.34;100571.63;5042156;28;20103;-75
2022/05/20 04:58:37;;;;;;;8.57;2.53;;;;;;;16.12;85.27;100546.06;5036479;28;20038;-74
2022/05/20 05:01:03;;;;;;;3.95;2.00;;;;;;;16.15;85.52;100522.97;5036234;28;20036;-74
2022/05/20 05:03:29;;;;;;;4.95;2.00;;;;;;;16.13;85.88;100522.50;5033100;28;20041;-74
2022/05/20 05:05:54;;;;;;;7.43;2.80;;;;;;;16.15;85.65;100542.59;5036203;28;20029;-74
2022/05/20 05:08:20;;;;;;;5.13;2.10;;;;;;;16.16;85.22;100552.66;5021918;28;20041;-74
2022/05/20 05:10:45;;;;;;;5.30;2.00;;;;;;;16.15;84.82;100544.56;5035327;28;20033;-74
2022/05/20 05:13:12;;;;;;;4.70;2.05;;;;;;;16.16;85.11;100552.66;5036251;28;20041;-75
2022/05/20 05:15:37;;;;;;;7.30;2.05;;;;;;;16.17;85.07;100575.88;5024669;28;20113;-75
2022/05/20 05:18:09;;;;;;;5.28;2.35;;;;;;;16.18;85.00;100567.13;5034749;28;20055;-75
2022/05/20 05:20:35;;;;;;;6.93;2.00;;;;;;;16.19;85.33;100543.59;5036252;28;20029;-75
2022/05/20 05:23:01;;;;;;;7.22;2.20;;;;;;;16.19;85.06;100537.97;5034609;28;20036;-75
2022/05/20 05:25:29;;;;;;;6.00;2.03;;;;;;;16.21;85.05;100546.84;5035056;28;20630;-75
2022/05/20 05:27:54;;;;;;;6.63;2.03;;;;;;;16.19;85.03;100562.38;5022139;28;20051;-74
2022/05/20 05:30:20;;;;;;;5.30;1.55;;;;;;;16.19;85.43;100563.19;5034055;28;20518;-75
2022/05/20 05:32:45;;;;;;;8.18;2.28;;;;;;;16.20;85.81;100564.84;5036267;28;20041;-73
2022/05/20 05:35:15;;;;;;;7.35;2.03;;;;;;;16.19;85.75;100582.81;5034935;28;20029;-73
2022/05/20 05:37:40;;;;;;;3.20;2.20;;;;;;;16.19;85.97;100577.22;5034594;28;20104;-74
2022/05/20 05:40:07;;;;;;;5.90;2.17;;;;;;;16.22;86.77;100581.34;5034711;28;20081;-74
2022/05/20 05:42:33;;;;;;;4.57;2.08;;;;;;;16.25;86.91;100550.66;5036169;28;20026;-74
2022/05/20 05:44:59;;;;;;;5.28;2.58;;;;;;;16.22;87.49;100537.31;5019959;28;20497;-74
2022/05/20 05:47:25;;;;;;;7.25;2.78;;;;;;;16.23;87.52;100536.16;5048490;28;20025;-74
2022/05/20 05:49:50;;;;;;;5.47;2.50;;;;;;;16.23;86.71;100538.94;5039572;28;20063;-73
2022/05/20 05:52:16;;;;;;;8.68;2.53;;;;;;;16.22;86.77;100534.50;5038525;28;20041;-73
2022/05/20 05:54:41;;;;;;;6.43;2.58;;;;;;;16.23;86.85;100529.72;5038571;28;20036;-73
2022/05/20 05:57:07;;;;;;;7.15;2.55;;;;;;;16.27;86.46;100542.75;4989186;28;20068;-73
2022/05/20 05:59:33;;;;;;;6.20;2.50;;;;;;;16.24;86.29;100537.81;5038591;28;20048;-73
2022/05/20 06:01:59;;;;;;;6.28;2.45;;;;;;;16.24;86.39;100545.38;5017618;28;20596;-73
2022/05/20 06:04:25;;;;;;;5.90;2.45;;;;;;;16.26;86.43;100540.28;5036766;28;20037;-73
2022/05/20 06:06:50;;;;;;;5.10;2.60;;;;;;;16.28;86.64;100552.78;5018500;28;20036;-74
2022/05/20 06:09:16;;;;;;;3.92;2.28;;;;;;;16.29;87.10;100553.63;5033202;28;20534;-73
2022/05/20 06:11:41;;;;;;;4.78;2.50;;;;;;;16.29;86.27;100556.41;5005616;28;20103;-73
2022/05/20 06:14:07;;;;;;;6.35;2.30;;;;;;;16.30;86.13;100567.31;5020720;28;20379;-73
2022/05/20 06:16:32;;;;;;;3.65;2.35;;;;;;;16.34;85.86;100569.44;5018429;28;20076;-73
2022/05/20 06:18:58;;;;;;;4.53;2.50;;;;;;;16.36;85.69;100578.34;5032518;28;20040;-73
2022/05/20 06:21:23;;;;;;;5.53;2.15;;;;;;;16.37;85.54;100575.19;5021374;28;20056;-73
2022/05/20 06:23:49;;;;;;;4.78;1.95;;;;;;;16.40;85.23;100566.13;5016236;28;20034;-71
2022/05/20 06:26:15;;;;;;;6.03;2.20;;;;;;;16.43;85.99;100565.47;5037603;28;20441;-72
2022/05/20 06:28:40;;;;;;;5.07;2.40;;;;;;;16.46;86.22;100559.19;5038242;28;20064;-73
2022/05/20 06:31:06;;;;;;;4.75;2.03;;;;;;;16.49;85.91;100566.13;5021649;28;20037;-73
2022/05/20 06:33:31;;;;;;;4.47;2.40;;;;;;;16.54;86.83;100563.13;5014026;28;20494;-73
2022/05/20 06:41:25;;;;;;;4.70;2.40;;;;;;;16.63;86.65;100549.94;5024088;28;20470;-73
2022/05/20 06:43:51;;;;;;;5.72;2.70;;;;;;;16.67;87.12;100544.47;5021243;28;20052;-73
2022/05/20 06:46:16;;;;;;;7.50;3.00;;;;;;;16.72;87.63;100550.72;5037957;28;20037;-73
2022/05/20 06:48:53;;;;;;;6.25;3.20;;;;;;;16.74;88.08;100556.00;5021198;28;20398;-73
2022/05/20 06:51:27;;;;;;;7.93;3.00;;;;;;;16.78;88.46;100556.19;5004190;28;20021;-73
2022/05/20 06:53:53;;;;;;;6.07;3.40;;;;;;;16.81;90.21;100569.53;5009141;28;20025;-74
2022/05/20 06:56:19;;;;;;;7.18;3.03;;;;;;;16.84;89.48;100571.69;5037633;28;20033;-74
2022/05/20 06:58:44;;;;;;;6.65;3.13;;;;;;;16.86;90.11;100574.97;5020101;28;20021;-68
2022/05/20 07:01:10;;;;;;;10.63;3.42;;;;;;;16.87;90.72;100571.81;5021145;28;20029;-68
2022/05/20 07:03:36;;;;;;;8.10;3.13;;;;;;;16.91;90.66;100574.78;5017525;28;20068;-68
2022/05/20 07:06:02;;;;;;;7.03;3.30;;;;;;;16.94;90.94;100582.53;5000659;28;20037;-68
2022/05/20 07:08:28;;;;;;;11.07;4.65;;;;;;;16.95;91.22;100572.97;5001462;28;20529;-68
2022/05/20 07:10:53;;;;;;;7.28;4.03;;;;;;;16.96;91.83;100574.59;5026900;28;20033;-68
2022/05/20 07:13:19;;;;;;;8.73;4.28;;;;;;;16.95;92.17;100579.38;5002661;28;20050;-68
2022/05/20 07:15:44;;;;;;;6.95;3.47;;;;;;;16.98;91.71;100584.31;5019087;28;20064;-68
2022/05/20 07:18:10;;;;;;;8.23;3.90;;;;;;;17.01;91.72;100599.66;5018839;28;20087;-68
2022/05/20 07:20:36;;;;;;;11.20;4.22;;;;;;;17.04;92.85;100612.19;5004224;28;20569;-68
2022/05/20 07:23:01;;;;;;;9.45;4.10;;;;;;;17.06;93.70;100605.09;5015960;28;20096;-68
2022/05/20 07:25:26;;;;;;;9.10;3.90;;;;;;;17.09;93.14;100624.06;5037089;28;20493;-68
2022/05/20 07:27:52;;;;;;;7.65;3.80;;;;;;;17.11;93.11;100646.19;5017112;28;20029;-68
2022/05/20 07:30:18;;;;;;;11.68;4.05;;;;;;;17.10;93.54;100652.94;5001059;28;20041;-69
2022/05/20 07:32:43;;;;;;;11.02;3.92;;;;;;;17.11;93.06;100652.63;5018095;28;20034;-68
2022/05/20 07:35:11;;;;;;;10.95;3.45;;;;;;;17.13;92.53;100650.31;5000108;28;20018;-68
2022/05/20 07:37:37;;;;;;;11.57;3.63;;;;;;;17.14;92.12;100642.72;5015983;28;20075;-68
2022/05/20 07:40:03;;;;;;;12.25;3.78;;;;;;;17.14;91.80;100643.53;5020269;28;20033;-69
2022/05/20 07:42:29;;;;;;;10.20;3.55;;;;;;;17.16;91.57;100655.25;5000862;28;20033;-68
2022/05/20 07:44:55;;;;;;;7.95;3.17;;;;;;;17.16;91.88;100660.88;5063548;28;20034;-68
2022/05/20 07:47:20;;;;;;;11.40;3.53;;;;;;;17.19;91.89;100671.41;5020315;28;20041;-69
2022/05/20 07:49:46;;;;;;;11.98;4.32;;;;;;;17.20;91.74;100666.63;5034906;28;20033;-68
2022/05/20 07:52:12;;;;;;;13.30;4.05;;;;;;;17.19;91.80;100663.00;5018175;28;20049;-68
2022/05/20 07:54:41;;;;;;;10.98;3.65;;;;;;;17.24;91.63;100669.56;5024079;28;20022;-68
2022/05/20 07:57:07;;;;;;;10.65;4.72;;;;;;;17.25;91.92;100671.25;4984495;28;20080;-69
2022/05/20 07:59:41;;;;;;;12.77;4.28;;;;;;;17.24;91.71;100675.19;5014665;28;20036;-68
2022/05/20 08:02:07;;;;;;;11.95;3.45;;;;;;;17.28;91.74;100676.19;5016805;28;20021;-69
2022/05/20 08:07:29;;;;;;;12.40;4.00;;;;;;;17.30;91.64;100687.88;5029854;28;20040;-68
2022/05/20 08:09:55;;;;;;;11.88;4.25;;;;;;;17.32;91.39;100722.06;5032945;28;20028;-68
2022/05/20 08:12:21;;;;;;;13.38;4.00;;;;;;;17.35;90.85;100753.09;5019346;28;20046;-68
2022/05/20 08:14:48;;;;;;;12.50;4.18;;;;;;;17.34;90.77;100770.28;5015053;28;20071;-68
2022/05/20 08:17:13;;;;;;;14.82;4.18;;;;;;;17.34;91.17;100765.47;5016444;28;20025;-68
2022/05/20 08:19:39;;;;;;;14.15;4.13;;;;;;;17.35;90.87;100749.47;5027738;28;20089;-69
2022/05/20 08:22:04;;;;;;;12.85;3.72;;;;;;;17.33;91.20;100734.94;5002311;28;20033;-68
2022/05/20 08:24:30;;;;;;;13.77;4.00;;;;;;;17.33;91.65;100729.34;5017106;28;20505;-68
2022/05/20 08:26:56;;;;;;;16.60;4.40;;;;;;;17.30;91.71;100732.78;4995277;28;20486;-69
2022/05/20 08:29:21;;;;;;;14.95;4.63;;;;;;;17.31;92.31;100752.13;5016181;28;20040;-68
2022/05/20 08:31:47;;;;;;;14.35;4.38;;;;;;;17.32;92.32;100772.59;5019653;28;20044;-69
2022/05/20 08:34:13;;;;;;;15.93;4.70;;;;;;;17.31;92.92;100801.81;5035791;28;20029;-68
2022/05/20 08:36:39;;;;;;;14.70;4.50;;;;;;;17.31;93.37;100783.00;5019119;28;20068;-68
2022/05/20 08:39:05;;;;;;;14.13;4.38;;;;;;;17.32;92.59;100781.81;5022283;28;20032;-68
2022/05/20 08:41:36;;;;;;;13.90;4.55;;;;;;;17.31;92.65;100783.00;5034178;28;20033;-68
2022/05/20 08:44:02;;;;;;;13.05;4.20;;;;;;;17.31;92.82;100754.91;5005866;28;20128;-68
2022/05/20 08:46:28;;;;;;;14.93;4.63;;;;;;;17.29;93.44;100722.72;5019518;28;20033;-68
2022/05/20 08:48:55;;;;;;;12.48;3.90;;;;;;;17.27;94.23;100719.44;5002816;28;20371;-68
2022/05/20 08:51:21;;;;;;;15.68;4.70;;;;;;;17.26;94.66;100720.59;4983369;28;20030;-68
2022/05/20 08:53:47;;;;;;;15.55;5.35;;;;;;;17.27;94.51;100708.19;4999653;28;20028;-68
2022/05/20 08:56:14;;;;;;;13.85;4.53;;;;;;;17.27;95.01;100709.00;5036103;28;20038;-68
2022/05/20 08:58:48;;;;;;;14.25;4.53;;;;;;;17.27;95.52;100708.19;5018131;28;20083;-68
2022/05/20 09:01:13;;;;;;;13.98;4.47;;;;;;;17.17;96.38;100693.38;5001522;28;20033;-68
2022/05/20 09:03:39;;;;;;;14.10;4.78;;;;;;;17.14;95.78;100708.06;5016133;28;20042;-68
2022/05/20 09:06:12;;;;;;;13.90;5.07;;;;;;;17.09;95.79;100697.03;5000870;28;20360;-68
2022/05/20 09:08:37;;;;;;;12.60;4.55;;;;;;;17.05;95.98;100673.59;4983371;28;20121;-68
2022/05/20 09:11:04;;;;;;;14.27;4.22;;;;;;;17.07;95.15;100667.66;5001942;28;20056;-68
2022/05/20 09:16:24;;;;;;;14.00;4.25;;;;;;;16.99;96.72;100669.31;5038608;28;20387;-68
2022/05/20 09:19:10;;;;;;;12.30;3.85;;;;;;;17.03;95.94;100681.53;5002601;28;20037;-68
2022/05/20 09:21:38;;;;;;;12.18;4.43;;;;;;;17.02;97.31;100696.72;5022262;28;20038;-69
2022/05/20 09:24:24;;;;;;;12.32;3.85;;;;;;;17.07;97.08;100715.34;4985010;28;20029;-69
2022/05/20 09:27:24;;;;;;;15.00;4.22;;;;;;;17.12;96.95;100703.94;5034673;28;20038;-69
2022/05/20 09:29:59;;;;;;;11.57;4.07;;;;;;;17.16;97.13;100682.47;5015302;28;20030;-68
2022/05/20 09:32:25;;;;;;;14.98;4.60;;;;;;;17.16;97.47;100694.53;5032902;28;20036;-68
2022/05/20 09:35:05;;;;;;;15.75;5.00;;;;;;;17.19;97.75;100702.28;5036349;28;20033;-68
2022/05/20 09:37:32;;;;;;;12.30;4.03;;;;;;;17.20;97.05;100703.09;5011448;28;20033;-68
2022/05/20 09:39:58;;;;;;;11.15;3.45;;;;;;;17.27;96.02;100725.03;5008928;28;20044;-67
2022/05/20 09:42:28;;;;;;;14.13;3.90;;;;;;;17.30;95.73;100747.66;4998721;28;20034;-69
2022/05/20 09:44:58;;;;;;;13.85;4.25;;;;;;;17.35;95.14;100749.47;5015746;28;20022;-68
2022/05/20 09:47:48;;;;;;;10.48;3.20;;;;;;;17.46;94.87;100756.34;5015103;28;20065;-69
2022/05/20 09:50:24;;;;;;;12.38;3.50;;;;;;;17.56;93.97;100761.63;5018122;28;20088;-68
2022/05/20 09:53:09;;;;;;;13.13;3.35;;;;;;;17.67;93.39;100778.13;5030699;28;20053;-68
2022/05/20 09:55:39;;;;;;;10.73;3.13;;;;;;;17.74;92.10;100781.22;5026391;28;20033;-68
2022/05/20 09:58:17;;;;;;;13.07;3.15;;;;;;;17.79;91.04;100781.06;5017537;28;20029;-69
2022/05/20 10:00:52;;;;;;;10.93;3.25;;;;;;;17.80;90.34;100793.94;4992113;28;20115;-69
2022/05/20 10:03:28;;;;;;;9.07;2.90;;;;;;;17.77;89.66;100803.03;4994366;28;20026;-68
2022/05/20 10:06:18;;;;;;;11.70;3.10;;;;;;;17.77;88.82;100800.22;4990083;28;20064;-69
2022/05/20 10:08:46;;;;;;;10.48;3.00;;;;;;;17.74;87.91;100806.50;5031571;28;20545;-68
2022/05/20 10:11:19;;;;;;;13.60;3.50;;;;;;;17.76;87.07;100809.81;5001889;28;20030;-69
2022/05/20 10:13:55;;;;;;;13.63;3.53;;;;;;;17.78;86.96;100819.59;5002624;28;20512;-68
2022/05/20 10:16:43;;;;;;;11.18;2.92;;;;;;;17.79;85.92;100826.03;5008119;28;20029;-68
2022/05/20 10:19:40;;;;;;;12.70;3.25;;;;;;;17.72;85.17;100834.94;5018420;28;20037;-68
2022/05/20 10:22:10;;;;;;;13.02;3.53;;;;;;;17.73;84.49;100836.59;5034592;28;20041;-68
2022/05/20 10:24:48;;;;;;;10.98;3.80;;;;;;;17.75;84.60;100841.88;5033882;28;20034;-68
2022/05/20 10:27:39;;;;;;;15.50;3.72;;;;;;;17.75;84.18;100839.06;5017655;28;20036;-68
2022/05/20 10:33:03;;;;;;;13.75;3.90;;;;;;;17.84;81.80;100856.75;5010481;28;20030;-67
2022/05/20 10:36:02;;;;;;;17.60;3.92;;;;;;;17.90;81.59;100863.81;5021204;28;20036;-68
2022/05/20 10:38:45;;;;;;;15.68;2.72;;;;;;;17.98;81.27;100857.34;5020325;28;20558;-68
2022/05/20 10:41:18;;;;;;;15.07;3.42;;;;;;;18.09;80.96;100872.69;5022735;28;20033;-68
2022/05/20 10:49:42;;;;;;;13.05;2.60;;;;;;;18.29;77.62;100884.34;5018099;28;20040;-68
2022/05/20 10:52:27;;;;;;;18.17;2.88;;;;;;;18.33;77.38;100895.75;5023920;28;20037;-68
2022/05/20 10:55:21;;;;;;;13.57;2.50;;;;;;;18.44;77.20;100897.88;5035907;28;20470;-68
2022/05/20 10:57:49;;;;;;;19.10;2.90;;;;;;;18.45;76.49;100910.75;5037692;28;20040;-68
2022/05/20 11:00:22;;;;;;;20.30;2.85;;;;;;;18.45;75.65;100909.94;5037630;28;20529;-68
2022/05/20 11:03:09;;;;;;;16.00;2.83;;;;;;;18.57;75.23;100918.47;5048799;28;20053;-68
2022/05/20 11:05:53;;;;;;;9.80;1.98;;;;;;;18.67;74.84;100909.66;5038295;28;20040;-69
2022/05/20 11:08:42;;;;;;;15.80;2.78;;;;;;;18.70;73.88;100913.78;5025826;28;20044;-69
2022/05/20 11:11:34;;;;;;;10.30;2.00;;;;;;;18.73;71.98;100922.34;5017280;28;20121;-68
2022/05/20 11:14:27;;;;;;;16.13;2.45;;;;;;;18.83;71.96;100917.53;5032576;28;20537;-68
2022/05/20 11:17:08;;;;;;;12.63;2.03;;;;;;;18.96;71.13;100908.84;5026316;28;20083;-68
2022/05/20 11:19:46;;;;;;;13.52;2.03;;;;;;;19.06;70.77;100916.06;5038407;28;20041;-68
2022/05/20 11:22:49;;;;;;;15.15;2.72;;;;;;;19.18;70.09;100921.75;5019389;28;20025;-68
2022/05/20 11:25:14;;;;;;;13.43;2.35;;;;;;;19.32;68.93;100937.56;5028490;28;20375;-68
2022/05/20 11:27:49;;;;;;;10.93;2.33;;;;;;;19.36;67.71;100933.75;5037150;28;20045;-69
2022/05/20 11:30:22;;;;;;;12.07;2.40;;;;;;;19.45;66.51;100938.47;5038255;28;20681;-68
2022/05/20 11:32:57;;;;;;;14.32;2.17;;;;;;;19.53;66.14;100940.38;5024090;28;20026;-68
2022/05/20 11:36:07;;;;;;;11.48;2.28;;;;;;;19.60;65.74;100940.66;5038003;28;20033;-68
2022/05/20 11:39:06;;;;;;;17.20;2.33;;;;;;;19.82;65.40;100939.50;5036660;28;20072;-68
2022/05/20 11:41:42;;;;;;;9.18;1.60;;;;;;;19.92;64.53;100949.50;5023387;28;20030;-68
2022/05/20 11:44:29;;;;;;;12.02;2.15;;;;;;;19.93;64.72;100959.63;5033781;28;20026;-68
2022/05/20 11:47:13;;;;;;;12.05;2.50;;;;;;;20.04;63.80;100955.19;5033227;28;20394;-68
2022/05/20 11:49:48;;;;;;;13.95;2.15;;;;;;;20.06;62.89;100950.84;5020784;28;20037;-68
2022/05/20 11:52:22;;;;;;;11.88;1.85;;;;;;;20.15;62.52;100947.94;5023514;28;20128;-68
2022/05/20 11:55:01;;;;;;;12.05;2.17;;;;;;;20.20;62.37;100944.91;5003425;28;20026;-68
2022/05/20 11:57:29;;;;;;;13.70;2.28;;;;;;;20.29;61.92;100956.91;5016689;28;20032;-68
2022/05/20 12:00:10;;;;;;;12.55;1.80;;;;;;;20.45;61.60;100947.78;5033658;28;20033;-67
2022/05/20 12:02:45;;;;;;;9.07;2.22;;;;;;;20.52;61.51;100951.66;5018889;28;20038;-68
2022/05/20 12:05:16;;;;;;;11.65;1.90;;;;;;;20.68;61.74;100951.81;5017143;28;20042;-68
2022/05/20 12:07:42;;;;;;;10.70;1.95;;;;;;;20.77;60.88;100959.34;5030928;28;20052;-68
2022/05/20 12:10:26;;;;;;;10.30;2.08;;;;;;;20.92;60.42;100959.47;5037512;28;20111;-68
2022/05/20 12:12:53;;;;;;;10.32;2.17;;;;;;;20.95;58.57;100953.13;5036059;28;20120;-68